Cajati, Brazil
Current Conditions -  °F | °C
As of 9:35 AM on Friday 24 Oct 2014 (Local Time) from SBBI Reporting Station
Overcast Overcast  
Wind Chill: 59°   Ceiling: 600
Heat Index: 59°   Visibility: 4mi
Dew Point: 59°   Wind: 3mph
Humidity: 100%   Direction: 80°E
Pressure: 30.12"   Gusts: NA
Location:  24.74°S, 48.12°W
Report Text: SBBI 241135Z 08003KT 6000 FEW003 SCT005 OVC006 15/15 Q1020
Loading
Personal Weather Stations






























Interactive Weather Map
Tropical Storm Tracking
New forecast layout! Learn more

10-Day Weather Forecast

Advertisements
Track Severe Weather on mobile